sensor_id;sensor_type;location;lat;lon;timestamp;P1;durP1;ratioP1;P2;durP2;ratioP2
24401;SDS011;12539;48.808;11.292;2022-10-16T00:01:50;8.85;;;5.75;;
24401;SDS011;12539;48.808;11.292;2022-10-16T00:04:16;4.65;;;4.15;;
24401;SDS011;12539;48.808;11.292;2022-10-16T00:06:42;5.60;;;3.70;;
24401;SDS011;12539;48.808;11.292;2022-10-16T00:09:08;5.13;;;4.55;;
24401;SDS011;12539;48.808;11.292;2022-10-16T00:11:34;6.75;;;4.47;;
24401;SDS011;12539;48.808;11.292;2022-10-16T00:14:02;4.93;;;3.72;;
24401;SDS011;12539;48.808;11.292;2022-10-16T00:16:31;4.28;;;3.65;;
24401;SDS011;12539;48.808;11.292;2022-10-16T00:18:57;6.85;;;4.22;;
24401;SDS011;12539;48.808;11.292;2022-10-16T00:21:24;4.28;;;3.35;;
24401;SDS011;12539;48.808;11.292;2022-10-16T00:23:52;5.82;;;4.18;;
24401;SDS011;12539;48.808;11.292;2022-10-16T00:26:19;4.95;;;3.72;;
24401;SDS011;12539;48.808;11.292;2022-10-16T00:28:49;6.28;;;4.20;;
24401;SDS011;12539;48.808;11.292;2022-10-16T00:31:16;4.68;;;3.47;;
24401;SDS011;12539;48.808;11.292;2022-10-16T00:33:44;4.25;;;3.85;;
24401;SDS011;12539;48.808;11.292;2022-10-16T00:36:11;4.68;;;4.15;;
24401;SDS011;12539;48.808;11.292;2022-10-16T00:38:39;4.38;;;3.80;;
24401;SDS011;12539;48.808;11.292;2022-10-16T00:41:06;5.85;;;3.50;;
24401;SDS011;12539;48.808;11.292;2022-10-16T00:46:04;4.43;;;3.53;;
24401;SDS011;12539;48.808;11.292;2022-10-16T00:48:35;5.05;;;4.05;;
24401;SDS011;12539;48.808;11.292;2022-10-16T00:51:01;5.65;;;3.95;;
24401;SDS011;12539;48.808;11.292;2022-10-16T00:53:29;7.07;;;4.35;;
24401;SDS011;12539;48.808;11.292;2022-10-16T00:55:55;4.05;;;3.05;;
24401;SDS011;12539;48.808;11.292;2022-10-16T00:58:21;6.05;;;4.65;;
24401;SDS011;12539;48.808;11.292;2022-10-16T01:00:47;6.82;;;3.97;;
24401;SDS011;12539;48.808;11.292;2022-10-16T01:03:26;6.50;;;4.43;;
24401;SDS011;12539;48.808;11.292;2022-10-16T01:11:24;5.53;;;3.95;;
24401;SDS011;12539;48.808;11.292;2022-10-16T01:16:52;7.28;;;4.28;;
24401;SDS011;12539;48.808;11.292;2022-10-16T01:19:31;7.47;;;5.03;;
24401;SDS011;12539;48.808;11.292;2022-10-16T01:22:00;4.97;;;4.18;;
24401;SDS011;12539;48.808;11.292;2022-10-16T01:24:32;3.65;;;3.35;;
24401;SDS011;12539;48.808;11.292;2022-10-16T01:27:02;7.70;;;4.38;;
24401;SDS011;12539;48.808;11.292;2022-10-16T01:32:41;6.60;;;4.72;;
24401;SDS011;12539;48.808;11.292;2022-10-16T01:35:34;7.70;;;4.32;;
24401;SDS011;12539;48.808;11.292;2022-10-16T01:38:04;4.85;;;3.17;;
24401;SDS011;12539;48.808;11.292;2022-10-16T01:40:44;5.47;;;4.85;;
24401;SDS011;12539;48.808;11.292;2022-10-16T01:43:24;5.55;;;4.40;;
24401;SDS011;12539;48.808;11.292;2022-10-16T01:45:56;5.68;;;3.78;;
24401;SDS011;12539;48.808;11.292;2022-10-16T01:48:23;3.65;;;3.35;;
24401;SDS011;12539;48.808;11.292;2022-10-16T01:50:57;7.95;;;4.30;;
24401;SDS011;12539;48.808;11.292;2022-10-16T01:53:32;5.07;;;4.18;;
24401;SDS011;12539;48.808;11.292;2022-10-16T01:55:58;8.93;;;4.63;;
24401;SDS011;12539;48.808;11.292;2022-10-16T01:58:27;4.05;;;3.65;;
24401;SDS011;12539;48.808;11.292;2022-10-16T02:00:56;5.40;;;3.63;;
24401;SDS011;12539;48.808;11.292;2022-10-16T02:03:22;5.93;;;3.83;;
24401;SDS011;12539;48.808;11.292;2022-10-16T02:05:55;3.95;;;3.58;;
24401;SDS011;12539;48.808;11.292;2022-10-16T02:08:24;4.47;;;3.40;;
24401;SDS011;12539;48.808;11.292;2022-10-16T02:10:54;4.03;;;3.38;;
24401;SDS011;12539;48.808;11.292;2022-10-16T02:13:31;5.53;;;3.92;;
24401;SDS011;12539;48.808;11.292;2022-10-16T02:16:02;8.50;;;4.60;;
24401;SDS011;12539;48.808;11.292;2022-10-16T02:18:27;4.32;;;3.38;;
24401;SDS011;12539;48.808;11.292;2022-10-16T02:26:00;4.45;;;3.95;;
24401;SDS011;12539;48.808;11.292;2022-10-16T02:28:33;4.18;;;3.75;;
24401;SDS011;12539;48.808;11.292;2022-10-16T02:31:06;4.53;;;3.50;;
24401;SDS011;12539;48.808;11.292;2022-10-16T02:36:03;4.72;;;3.78;;
24401;SDS011;12539;48.808;11.292;2022-10-16T02:38:29;4.38;;;3.70;;
24401;SDS011;12539;48.808;11.292;2022-10-16T02:40:55;4.20;;;3.67;;
24401;SDS011;12539;48.808;11.292;2022-10-16T02:43:21;6.00;;;4.90;;
24401;SDS011;12539;48.808;11.292;2022-10-16T02:45:47;3.92;;;3.20;;
24401;SDS011;12539;48.808;11.292;2022-10-16T02:48:13;4.43;;;4.03;;
24401;SDS011;12539;48.808;11.292;2022-10-16T02:50:39;6.55;;;4.60;;
24401;SDS011;12539;48.808;11.292;2022-10-16T02:53:05;6.35;;;4.38;;
24401;SDS011;12539;48.808;11.292;2022-10-16T02:55:31;7.43;;;5.13;;
24401;SDS011;12539;48.808;11.292;2022-10-16T02:57:57;6.53;;;4.47;;
24401;SDS011;12539;48.808;11.292;2022-10-16T03:00:23;6.88;;;4.95;;
24401;SDS011;12539;48.808;11.292;2022-10-16T03:02:49;4.93;;;3.85;;
24401;SDS011;12539;48.808;11.292;2022-10-16T03:05:14;7.18;;;4.68;;
24401;SDS011;12539;48.808;11.292;2022-10-16T03:07:40;5.38;;;4.32;;
24401;SDS011;12539;48.808;11.292;2022-10-16T03:10:06;5.40;;;4.75;;
24401;SDS011;12539;48.808;11.292;2022-10-16T03:12:32;5.07;;;3.75;;
24401;SDS011;12539;48.808;11.292;2022-10-16T03:14:58;6.15;;;5.15;;
24401;SDS011;12539;48.808;11.292;2022-10-16T03:17:24;5.38;;;4.28;;
24401;SDS011;12539;48.808;11.292;2022-10-16T03:19:50;4.88;;;4.20;;
24401;SDS011;12539;48.808;11.292;2022-10-16T03:22:16;4.18;;;3.35;;
24401;SDS011;12539;48.808;11.292;2022-10-16T03:24:41;3.53;;;2.88;;
24401;SDS011;12539;48.808;11.292;2022-10-16T03:27:07;4.57;;;4.18;;
24401;SDS011;12539;48.808;11.292;2022-10-16T03:29:33;5.07;;;3.45;;
24401;SDS011;12539;48.808;11.292;2022-10-16T03:31:59;4.35;;;3.92;;
24401;SDS011;12539;48.808;11.292;2022-10-16T03:34:25;6.05;;;3.75;;
24401;SDS011;12539;48.808;11.292;2022-10-16T03:36:51;3.72;;;3.25;;
24401;SDS011;12539;48.808;11.292;2022-10-16T03:39:16;4.03;;;3.63;;
24401;SDS011;12539;48.808;11.292;2022-10-16T03:41:42;3.80;;;3.40;;
24401;SDS011;12539;48.808;11.292;2022-10-16T03:44:08;4.57;;;3.00;;
24401;SDS011;12539;48.808;11.292;2022-10-16T03:46:34;5.43;;;3.65;;
24401;SDS011;12539;48.808;11.292;2022-10-16T03:48:59;3.28;;;2.72;;
24401;SDS011;12539;48.808;11.292;2022-10-16T03:51:25;3.92;;;3.40;;
24401;SDS011;12539;48.808;11.292;2022-10-16T03:53:50;4.95;;;3.10;;
24401;SDS011;12539;48.808;11.292;2022-10-16T03:56:16;4.15;;;3.42;;
24401;SDS011;12539;48.808;11.292;2022-10-16T03:58:42;4.18;;;3.33;;
24401;SDS011;12539;48.808;11.292;2022-10-16T04:01:08;5.13;;;3.20;;
24401;SDS011;12539;48.808;11.292;2022-10-16T04:03:33;3.42;;;3.08;;
24401;SDS011;12539;48.808;11.292;2022-10-16T04:05:59;4.25;;;3.78;;
24401;SDS011;12539;48.808;11.292;2022-10-16T04:08:25;4.43;;;3.63;;
24401;SDS011;12539;48.808;11.292;2022-10-16T04:10:50;4.82;;;4.00;;
24401;SDS011;12539;48.808;11.292;2022-10-16T04:13:16;6.18;;;3.72;;
24401;SDS011;12539;48.808;11.292;2022-10-16T04:15:42;4.10;;;3.30;;
24401;SDS011;12539;48.808;11.292;2022-10-16T04:18:09;3.30;;;3.00;;
24401;SDS011;12539;48.808;11.292;2022-10-16T04:20:34;3.47;;;3.15;;
24401;SDS011;12539;48.808;11.292;2022-10-16T04:23:00;6.00;;;3.60;;
24401;SDS011;12539;48.808;11.292;2022-10-16T04:25:26;6.43;;;3.20;;
24401;SDS011;12539;48.808;11.292;2022-10-16T04:27:54;3.72;;;2.95;;
24401;SDS011;12539;48.808;11.292;2022-10-16T04:30:21;5.35;;;3.63;;
24401;SDS011;12539;48.808;11.292;2022-10-16T04:32:48;5.57;;;3.15;;
24401;SDS011;12539;48.808;11.292;2022-10-16T04:35:15;5.07;;;3.35;;
24401;SDS011;12539;48.808;11.292;2022-10-16T04:37:41;4.00;;;3.63;;
24401;SDS011;12539;48.808;11.292;2022-10-16T04:40:07;5.88;;;3.28;;
24401;SDS011;12539;48.808;11.292;2022-10-16T04:42:33;3.65;;;3.08;;
24401;SDS011;12539;48.808;11.292;2022-10-16T04:44:58;3.50;;;3.15;;
24401;SDS011;12539;48.808;11.292;2022-10-16T04:47:24;2.83;;;2.63;;
24401;SDS011;12539;48.808;11.292;2022-10-16T04:49:49;4.03;;;3.60;;
24401;SDS011;12539;48.808;11.292;2022-10-16T04:52:15;3.88;;;3.08;;
24401;SDS011;12539;48.808;11.292;2022-10-16T04:54:42;4.32;;;3.45;;
24401;SDS011;12539;48.808;11.292;2022-10-16T04:57:10;4.13;;;2.45;;
24401;SDS011;12539;48.808;11.292;2022-10-16T04:59:36;3.00;;;2.60;;
24401;SDS011;12539;48.808;11.292;2022-10-16T05:02:02;3.22;;;2.92;;
24401;SDS011;12539;48.808;11.292;2022-10-16T05:04:28;2.60;;;2.40;;
24401;SDS011;12539;48.808;11.292;2022-10-16T05:06:53;2.72;;;2.50;;
24401;SDS011;12539;48.808;11.292;2022-10-16T05:09:19;4.65;;;3.50;;
24401;SDS011;12539;48.808;11.292;2022-10-16T05:11:45;3.47;;;3.00;;
24401;SDS011;12539;48.808;11.292;2022-10-16T05:14:11;7.00;;;3.30;;
24401;SDS011;12539;48.808;11.292;2022-10-16T05:16:36;4.20;;;2.85;;
24401;SDS011;12539;48.808;11.292;2022-10-16T05:19:02;3.90;;;3.17;;
24401;SDS011;12539;48.808;11.292;2022-10-16T05:21:27;2.42;;;2.22;;
24401;SDS011;12539;48.808;11.292;2022-10-16T05:23:53;2.88;;;2.47;;
24401;SDS011;12539;48.808;11.292;2022-10-16T05:26:20;2.90;;;2.60;;
24401;SDS011;12539;48.808;11.292;2022-10-16T05:28:46;3.53;;;2.42;;
24401;SDS011;12539;48.808;11.292;2022-10-16T05:31:14;3.10;;;2.80;;
24401;SDS011;12539;48.808;11.292;2022-10-16T05:33:39;5.22;;;3.10;;
24401;SDS011;12539;48.808;11.292;2022-10-16T05:36:05;7.15;;;3.83;;
24401;SDS011;12539;48.808;11.292;2022-10-16T05:38:33;3.35;;;3.05;;
24401;SDS011;12539;48.808;11.292;2022-10-16T05:41:00;3.10;;;2.75;;
24401;SDS011;12539;48.808;11.292;2022-10-16T05:43:27;4.13;;;3.63;;
24401;SDS011;12539;48.808;11.292;2022-10-16T05:46:03;5.45;;;3.90;;
24401;SDS011;12539;48.808;11.292;2022-10-16T05:48:30;5.97;;;4.22;;
24401;SDS011;12539;48.808;11.292;2022-10-16T05:50:57;3.10;;;2.70;;
24401;SDS011;12539;48.808;11.292;2022-10-16T05:53:32;3.30;;;2.95;;
24401;SDS011;12539;48.808;11.292;2022-10-16T05:55:59;4.68;;;3.55;;
24401;SDS011;12539;48.808;11.292;2022-10-16T05:58:27;3.35;;;3.00;;
24401;SDS011;12539;48.808;11.292;2022-10-16T06:01:00;2.80;;;2.42;;
24401;SDS011;12539;48.808;11.292;2022-10-16T06:03:28;4.78;;;3.97;;
24401;SDS011;12539;48.808;11.292;2022-10-16T06:05:54;4.07;;;3.35;;
24401;SDS011;12539;48.808;11.292;2022-10-16T06:08:20;5.00;;;3.15;;
24401;SDS011;12539;48.808;11.292;2022-10-16T06:10:47;2.88;;;2.58;;
24401;SDS011;12539;48.808;11.292;2022-10-16T06:13:14;15.68;;;6.97;;
24401;SDS011;12539;48.808;11.292;2022-10-16T06:15:41;20.58;;;8.02;;
24401;SDS011;12539;48.808;11.292;2022-10-16T06:18:08;15.93;;;6.95;;
24401;SDS011;12539;48.808;11.292;2022-10-16T06:20:34;15.60;;;6.60;;
24401;SDS011;12539;48.808;11.292;2022-10-16T06:23:01;13.52;;;6.00;;
24401;SDS011;12539;48.808;11.292;2022-10-16T06:25:26;17.70;;;5.93;;
24401;SDS011;12539;48.808;11.292;2022-10-16T06:27:52;12.40;;;5.85;;
24401;SDS011;12539;48.808;11.292;2022-10-16T06:30:18;8.93;;;5.03;;
24401;SDS011;12539;48.808;11.292;2022-10-16T06:32:43;12.10;;;4.97;;
24401;SDS011;12539;48.808;11.292;2022-10-16T06:35:09;9.85;;;5.35;;
24401;SDS011;12539;48.808;11.292;2022-10-16T06:37:35;11.32;;;6.85;;
24401;SDS011;12539;48.808;11.292;2022-10-16T06:40:00;11.23;;;5.15;;
24401;SDS011;12539;48.808;11.292;2022-10-16T06:42:29;11.13;;;5.50;;
24401;SDS011;12539;48.808;11.292;2022-10-16T06:44:55;10.75;;;5.82;;
24401;SDS011;12539;48.808;11.292;2022-10-16T06:47:20;9.80;;;5.40;;
24401;SDS011;12539;48.808;11.292;2022-10-16T06:49:46;7.40;;;5.03;;
24401;SDS011;12539;48.808;11.292;2022-10-16T06:52:12;9.45;;;5.57;;
24401;SDS011;12539;48.808;11.292;2022-10-16T06:54:37;9.88;;;4.93;;
24401;SDS011;12539;48.808;11.292;2022-10-16T06:57:03;10.73;;;5.43;;
24401;SDS011;12539;48.808;11.292;2022-10-16T06:59:29;11.98;;;5.43;;
24401;SDS011;12539;48.808;11.292;2022-10-16T07:01:54;11.82;;;5.40;;
24401;SDS011;12539;48.808;11.292;2022-10-16T07:04:20;11.05;;;5.35;;
24401;SDS011;12539;48.808;11.292;2022-10-16T07:06:46;9.00;;;4.97;;
24401;SDS011;12539;48.808;11.292;2022-10-16T07:09:11;8.10;;;4.95;;
24401;SDS011;12539;48.808;11.292;2022-10-16T07:11:38;9.18;;;4.60;;
24401;SDS011;12539;48.808;11.292;2022-10-16T07:14:05;8.32;;;4.85;;
24401;SDS011;12539;48.808;11.292;2022-10-16T07:16:39;11.30;;;5.05;;
24401;SDS011;12539;48.808;11.292;2022-10-16T07:19:05;7.38;;;3.85;;
24401;SDS011;12539;48.808;11.292;2022-10-16T07:21:32;8.50;;;4.18;;
24401;SDS011;12539;48.808;11.292;2022-10-16T07:24:02;7.20;;;3.72;;
24401;SDS011;12539;48.808;11.292;2022-10-16T07:26:29;7.18;;;4.18;;
24401;SDS011;12539;48.808;11.292;2022-10-16T07:28:57;9.93;;;4.22;;
24401;SDS011;12539;48.808;11.292;2022-10-16T07:31:23;8.60;;;4.65;;
24401;SDS011;12539;48.808;11.292;2022-10-16T07:33:49;8.00;;;3.20;;
24401;SDS011;12539;48.808;11.292;2022-10-16T07:36:17;9.25;;;4.93;;
24401;SDS011;12539;48.808;11.292;2022-10-16T07:38:44;9.93;;;3.78;;
24401;SDS011;12539;48.808;11.292;2022-10-16T07:41:11;5.72;;;3.30;;
24401;SDS011;12539;48.808;11.292;2022-10-16T07:43:38;6.60;;;3.40;;
24401;SDS011;12539;48.808;11.292;2022-10-16T07:46:04;6.07;;;3.50;;
24401;SDS011;12539;48.808;11.292;2022-10-16T07:48:30;4.60;;;2.65;;
24401;SDS011;12539;48.808;11.292;2022-10-16T07:50:58;6.45;;;3.08;;
24401;SDS011;12539;48.808;11.292;2022-10-16T07:53:28;4.25;;;2.78;;
24401;SDS011;12539;48.808;11.292;2022-10-16T07:56:04;8.60;;;3.50;;
24401;SDS011;12539;48.808;11.292;2022-10-16T07:58:31;6.38;;;3.42;;
24401;SDS011;12539;48.808;11.292;2022-10-16T08:00:57;7.40;;;3.10;;
24401;SDS011;12539;48.808;11.292;2022-10-16T08:03:24;4.75;;;2.40;;
24401;SDS011;12539;48.808;11.292;2022-10-16T08:05:50;5.32;;;2.58;;
24401;SDS011;12539;48.808;11.292;2022-10-16T08:08:16;5.82;;;3.40;;
24401;SDS011;12539;48.808;11.292;2022-10-16T08:10:43;5.78;;;2.75;;
24401;SDS011;12539;48.808;11.292;2022-10-16T08:13:09;4.55;;;2.60;;
24401;SDS011;12539;48.808;11.292;2022-10-16T08:15:35;6.97;;;3.08;;
24401;SDS011;12539;48.808;11.292;2022-10-16T08:18:01;4.03;;;2.20;;
24401;SDS011;12539;48.808;11.292;2022-10-16T08:20:29;4.10;;;2.67;;
24401;SDS011;12539;48.808;11.292;2022-10-16T08:22:56;4.93;;;2.20;;
24401;SDS011;12539;48.808;11.292;2022-10-16T08:25:22;2.78;;;2.47;;
24401;SDS011;12539;48.808;11.292;2022-10-16T08:27:49;2.92;;;2.00;;
24401;SDS011;12539;48.808;11.292;2022-10-16T08:30:16;3.95;;;2.17;;
24401;SDS011;12539;48.808;11.292;2022-10-16T08:32:43;2.67;;;2.15;;
24401;SDS011;12539;48.808;11.292;2022-10-16T08:35:09;6.57;;;2.38;;
24401;SDS011;12539;48.808;11.292;2022-10-16T08:37:35;4.88;;;2.70;;
24401;SDS011;12539;48.808;11.292;2022-10-16T08:40:01;4.07;;;2.47;;
24401;SDS011;12539;48.808;11.292;2022-10-16T08:45:26;3.22;;;2.30;;
24401;SDS011;12539;48.808;11.292;2022-10-16T08:50:44;4.60;;;2.35;;
24401;SDS011;12539;48.808;11.292;2022-10-16T08:53:18;5.25;;;2.00;;
24401;SDS011;12539;48.808;11.292;2022-10-16T08:55:56;4.68;;;2.30;;
24401;SDS011;12539;48.808;11.292;2022-10-16T08:58:26;5.47;;;2.05;;
24401;SDS011;12539;48.808;11.292;2022-10-16T09:00:54;3.13;;;2.08;;
24401;SDS011;12539;48.808;11.292;2022-10-16T09:16:43;2.58;;;1.70;;
24401;SDS011;12539;48.808;11.292;2022-10-16T09:19:30;2.67;;;1.60;;
24401;SDS011;12539;48.808;11.292;2022-10-16T09:22:25;4.60;;;1.88;;
24401;SDS011;12539;48.808;11.292;2022-10-16T09:24:51;2.13;;;1.60;;
24401;SDS011;12539;48.808;11.292;2022-10-16T09:27:18;2.08;;;1.88;;
24401;SDS011;12539;48.808;11.292;2022-10-16T09:29:44;3.15;;;2.10;;
24401;SDS011;12539;48.808;11.292;2022-10-16T09:32:11;5.00;;;1.98;;
24401;SDS011;12539;48.808;11.292;2022-10-16T09:34:45;3.28;;;1.60;;
24401;SDS011;12539;48.808;11.292;2022-10-16T09:37:21;1.80;;;1.35;;
24401;SDS011;12539;48.808;11.292;2022-10-16T09:39:49;3.65;;;1.60;;
24401;SDS011;12539;48.808;11.292;2022-10-16T09:42:23;3.05;;;1.60;;
24401;SDS011;12539;48.808;11.292;2022-10-16T09:44:56;4.13;;;1.63;;
24401;SDS011;12539;48.808;11.292;2022-10-16T09:47:28;3.38;;;1.63;;
24401;SDS011;12539;48.808;11.292;2022-10-16T09:49:56;2.88;;;1.92;;
24401;SDS011;12539;48.808;11.292;2022-10-16T09:52:29;2.55;;;1.55;;
24401;SDS011;12539;48.808;11.292;2022-10-16T09:54:56;3.13;;;1.70;;
24401;SDS011;12539;48.808;11.292;2022-10-16T09:57:24;2.08;;;1.50;;
24401;SDS011;12539;48.808;11.292;2022-10-16T09:59:54;3.30;;;1.50;;
24401;SDS011;12539;48.808;11.292;2022-10-16T10:04:56;3.50;;;1.52;;
24401;SDS011;12539;48.808;11.292;2022-10-16T10:07:32;3.08;;;1.40;;
24401;SDS011;12539;48.808;11.292;2022-10-16T10:10:03;5.32;;;1.67;;
24401;SDS011;12539;48.808;11.292;2022-10-16T10:12:30;1.17;;;1.02;;
24401;SDS011;12539;48.808;11.292;2022-10-16T10:15:12;3.83;;;1.60;;
24401;SDS011;12539;48.808;11.292;2022-10-16T10:17:46;4.95;;;1.63;;
24401;SDS011;12539;48.808;11.292;2022-10-16T10:20:23;6.15;;;1.75;;
24401;SDS011;12539;48.808;11.292;2022-10-16T10:22:53;3.65;;;1.67;;
24401;SDS011;12539;48.808;11.292;2022-10-16T10:25:26;2.90;;;1.40;;
24401;SDS011;12539;48.808;11.292;2022-10-16T10:33:40;4.20;;;1.50;;
24401;SDS011;12539;48.808;11.292;2022-10-16T10:36:22;4.50;;;1.50;;
24401;SDS011;12539;48.808;11.292;2022-10-16T10:39:17;4.22;;;1.63;;
24401;SDS011;12539;48.808;11.292;2022-10-16T10:47:38;3.63;;;1.20;;
24401;SDS011;12539;48.808;11.292;2022-10-16T10:50:26;2.33;;;1.23;;
24401;SDS011;12539;48.808;11.292;2022-10-16T11:01:54;1.83;;;1.10;;
24401;SDS011;12539;48.808;11.292;2022-10-16T11:06:59;2.60;;;1.10;;
24401;SDS011;12539;48.808;11.292;2022-10-16T11:12:13;3.45;;;1.25;;
24401;SDS011;12539;48.808;11.292;2022-10-16T11:14:42;1.92;;;1.20;;
24401;SDS011;12539;48.808;11.292;2022-10-16T11:17:22;2.55;;;1.00;;
24401;SDS011;12539;48.808;11.292;2022-10-16T11:22:58;5.50;;;1.33;;
24401;SDS011;12539;48.808;11.292;2022-10-16T11:25:40;1.92;;;0.90;;
24401;SDS011;12539;48.808;11.292;2022-10-16T11:28:20;3.53;;;1.10;;
24401;SDS011;12539;48.808;11.292;2022-10-16T11:31:09;1.38;;;0.75;;
24401;SDS011;12539;48.808;11.292;2022-10-16T11:33:44;1.55;;;0.80;;
24401;SDS011;12539;48.808;11.292;2022-10-16T11:36:29;1.58;;;1.00;;
24401;SDS011;12539;48.808;11.292;2022-10-16T11:41:59;1.45;;;0.90;;
24401;SDS011;12539;48.808;11.292;2022-10-16T11:44:55;1.98;;;0.82;;
24401;SDS011;12539;48.808;11.292;2022-10-16T11:50:17;2.47;;;1.02;;
24401;SDS011;12539;48.808;11.292;2022-10-16T11:53:09;3.50;;;0.70;;
24401;SDS011;12539;48.808;11.292;2022-10-16T11:55:47;1.00;;;0.75;;
24401;SDS011;12539;48.808;11.292;2022-10-16T11:58:24;1.38;;;0.80;;
24401;SDS011;12539;48.808;11.292;2022-10-16T12:08:51;3.65;;;1.20;;
24401;SDS011;12539;48.808;11.292;2022-10-16T12:20:00;1.77;;;0.90;;
24401;SDS011;12539;48.808;11.292;2022-10-16T12:23:04;3.08;;;1.17;;
24401;SDS011;12539;48.808;11.292;2022-10-16T12:25:32;0.93;;;0.75;;
24401;SDS011;12539;48.808;11.292;2022-10-16T12:28:15;1.17;;;0.90;;
24401;SDS011;12539;48.808;11.292;2022-10-16T12:30:55;2.55;;;1.05;;
24401;SDS011;12539;48.808;11.292;2022-10-16T12:33:30;2.08;;;0.90;;
24401;SDS011;12539;48.808;11.292;2022-10-16T12:36:01;1.23;;;0.93;;
24401;SDS011;12539;48.808;11.292;2022-10-16T12:38:35;1.13;;;0.80;;
24401;SDS011;12539;48.808;11.292;2022-10-16T12:41:10;2.13;;;0.60;;
24401;SDS011;12539;48.808;11.292;2022-10-16T12:43:38;1.73;;;0.70;;
24401;SDS011;12539;48.808;11.292;2022-10-16T12:48:35;4.25;;;2.70;;
24401;SDS011;12539;48.808;11.292;2022-10-16T13:02:15;9.88;;;3.17;;
24401;SDS011;12539;48.808;11.292;2022-10-16T13:07:55;7.70;;;2.65;;
24401;SDS011;12539;48.808;11.292;2022-10-16T13:11:17;5.07;;;2.03;;
24401;SDS011;12539;48.808;11.292;2022-10-16T13:16:49;7.70;;;2.33;;
24401;SDS011;12539;48.808;11.292;2022-10-16T13:24:47;6.45;;;1.95;;
24401;SDS011;12539;48.808;11.292;2022-10-16T13:27:51;3.97;;;1.80;;
24401;SDS011;12539;48.808;11.292;2022-10-16T13:30:30;4.03;;;1.67;;
24401;SDS011;12539;48.808;11.292;2022-10-16T13:33:07;6.03;;;2.28;;
24401;SDS011;12539;48.808;11.292;2022-10-16T13:35:46;8.70;;;2.42;;
24401;SDS011;12539;48.808;11.292;2022-10-16T13:38:17;4.97;;;2.30;;
24401;SDS011;12539;48.808;11.292;2022-10-16T13:40:52;5.30;;;1.50;;
24401;SDS011;12539;48.808;11.292;2022-10-16T13:43:41;5.47;;;1.60;;
24401;SDS011;12539;48.808;11.292;2022-10-16T13:46:20;4.75;;;1.85;;
24401;SDS011;12539;48.808;11.292;2022-10-16T13:48:57;4.20;;;1.90;;
24401;SDS011;12539;48.808;11.292;2022-10-16T13:51:23;5.57;;;1.70;;
24401;SDS011;12539;48.808;11.292;2022-10-16T13:53:49;6.30;;;2.03;;
24401;SDS011;12539;48.808;11.292;2022-10-16T13:56:16;3.33;;;1.30;;
24401;SDS011;12539;48.808;11.292;2022-10-16T13:58:44;4.00;;;1.60;;
24401;SDS011;12539;48.808;11.292;2022-10-16T14:01:20;3.08;;;0.98;;
24401;SDS011;12539;48.808;11.292;2022-10-16T14:03:50;3.83;;;1.38;;
24401;SDS011;12539;48.808;11.292;2022-10-16T14:06:17;6.43;;;2.15;;
24401;SDS011;12539;48.808;11.292;2022-10-16T14:08:52;3.72;;;1.58;;
24401;SDS011;12539;48.808;11.292;2022-10-16T14:11:25;2.35;;;1.60;;
24401;SDS011;12539;48.808;11.292;2022-10-16T14:13:51;4.57;;;1.50;;
24401;SDS011;12539;48.808;11.292;2022-10-16T14:16:27;4.43;;;1.48;;
24401;SDS011;12539;48.808;11.292;2022-10-16T14:18:56;5.03;;;1.67;;
24401;SDS011;12539;48.808;11.292;2022-10-16T14:21:25;1.70;;;1.23;;
24401;SDS011;12539;48.808;11.292;2022-10-16T14:23:51;2.15;;;1.13;;
24401;SDS011;12539;48.808;11.292;2022-10-16T14:26:18;5.03;;;1.73;;
24401;SDS011;12539;48.808;11.292;2022-10-16T14:28:46;2.90;;;1.00;;
24401;SDS011;12539;48.808;11.292;2022-10-16T14:33:44;2.30;;;1.20;;
24401;SDS011;12539;48.808;11.292;2022-10-16T14:38:37;2.17;;;1.33;;
24401;SDS011;12539;48.808;11.292;2022-10-16T14:41:04;4.93;;;1.35;;
24401;SDS011;12539;48.808;11.292;2022-10-16T14:43:34;1.88;;;0.90;;
24401;SDS011;12539;48.808;11.292;2022-10-16T14:48:42;2.47;;;0.90;;
24401;SDS011;12539;48.808;11.292;2022-10-16T14:51:11;2.55;;;1.30;;
24401;SDS011;12539;48.808;11.292;2022-10-16T14:53:40;1.92;;;1.20;;
24401;SDS011;12539;48.808;11.292;2022-10-16T14:56:09;2.55;;;1.40;;
24401;SDS011;12539;48.808;11.292;2022-10-16T14:58:42;2.42;;;1.00;;
24401;SDS011;12539;48.808;11.292;2022-10-16T15:01:09;2.05;;;1.00;;
24401;SDS011;12539;48.808;11.292;2022-10-16T15:03:36;2.83;;;1.08;;
24401;SDS011;12539;48.808;11.292;2022-10-16T15:06:02;2.03;;;0.88;;
24401;SDS011;12539;48.808;11.292;2022-10-16T15:08:28;1.48;;;0.80;;
24401;SDS011;12539;48.808;11.292;2022-10-16T15:10:54;1.60;;;1.00;;
24401;SDS011;12539;48.808;11.292;2022-10-16T15:13:20;2.75;;;1.30;;
24401;SDS011;12539;48.808;11.292;2022-10-16T15:15:46;1.35;;;0.88;;
24401;SDS011;12539;48.808;11.292;2022-10-16T15:18:14;1.88;;;1.00;;
24401;SDS011;12539;48.808;11.292;2022-10-16T15:20:44;1.20;;;0.85;;
24401;SDS011;12539;48.808;11.292;2022-10-16T15:23:19;5.07;;;1.23;;
24401;SDS011;12539;48.808;11.292;2022-10-16T15:25:47;1.70;;;1.02;;
24401;SDS011;12539;48.808;11.292;2022-10-16T15:28:17;2.28;;;1.45;;
24401;SDS011;12539;48.808;11.292;2022-10-16T15:30:45;3.20;;;1.05;;
24401;SDS011;12539;48.808;11.292;2022-10-16T15:33:12;2.47;;;1.00;;
24401;SDS011;12539;48.808;11.292;2022-10-16T15:35:41;1.20;;;0.98;;
24401;SDS011;12539;48.808;11.292;2022-10-16T15:38:11;3.78;;;1.00;;
24401;SDS011;12539;48.808;11.292;2022-10-16T15:40:38;3.60;;;1.02;;
24401;SDS011;12539;48.808;11.292;2022-10-16T15:43:04;1.60;;;1.00;;
24401;SDS011;12539;48.808;11.292;2022-10-16T15:45:30;4.38;;;1.13;;
24401;SDS011;12539;48.808;11.292;2022-10-16T15:47:56;2.25;;;0.82;;
24401;SDS011;12539;48.808;11.292;2022-10-16T15:50:22;1.50;;;1.05;;
24401;SDS011;12539;48.808;11.292;2022-10-16T15:52:48;3.35;;;1.25;;
24401;SDS011;12539;48.808;11.292;2022-10-16T15:55:15;1.30;;;1.17;;
24401;SDS011;12539;48.808;11.292;2022-10-16T15:57:42;1.63;;;1.00;;
24401;SDS011;12539;48.808;11.292;2022-10-16T16:00:09;3.88;;;1.33;;
24401;SDS011;12539;48.808;11.292;2022-10-16T16:02:40;2.67;;;1.30;;
24401;SDS011;12539;48.808;11.292;2022-10-16T16:05:07;3.30;;;1.35;;
24401;SDS011;12539;48.808;11.292;2022-10-16T16:07:34;3.13;;;1.05;;
24401;SDS011;12539;48.808;11.292;2022-10-16T16:10:00;3.20;;;1.50;;
24401;SDS011;12539;48.808;11.292;2022-10-16T16:12:27;3.58;;;1.58;;
24401;SDS011;12539;48.808;11.292;2022-10-16T16:14:53;3.58;;;1.50;;
24401;SDS011;12539;48.808;11.292;2022-10-16T16:17:18;3.75;;;1.45;;
24401;SDS011;12539;48.808;11.292;2022-10-16T16:19:45;1.73;;;1.10;;
24401;SDS011;12539;48.808;11.292;2022-10-16T16:22:11;2.92;;;1.17;;
24401;SDS011;12539;48.808;11.292;2022-10-16T16:24:36;3.45;;;1.60;;
24401;SDS011;12539;48.808;11.292;2022-10-16T16:27:02;2.72;;;1.30;;
24401;SDS011;12539;48.808;11.292;2022-10-16T16:29:28;1.73;;;1.40;;
24401;SDS011;12539;48.808;11.292;2022-10-16T16:31:53;5.05;;;1.60;;
24401;SDS011;12539;48.808;11.292;2022-10-16T16:34:23;3.97;;;1.10;;
24401;SDS011;12539;48.808;11.292;2022-10-16T16:36:49;2.78;;;1.40;;
24401;SDS011;12539;48.808;11.292;2022-10-16T16:39:16;3.72;;;1.30;;
24401;SDS011;12539;48.808;11.292;2022-10-16T16:41:41;2.10;;;1.20;;
24401;SDS011;12539;48.808;11.292;2022-10-16T16:44:08;4.63;;;1.40;;
24401;SDS011;12539;48.808;11.292;2022-10-16T16:46:35;3.53;;;1.20;;
24401;SDS011;12539;48.808;11.292;2022-10-16T16:49:02;2.85;;;1.70;;
24401;SDS011;12539;48.808;11.292;2022-10-16T16:51:28;3.22;;;1.20;;
24401;SDS011;12539;48.808;11.292;2022-10-16T16:53:54;3.78;;;1.40;;